createdAt,value
2023-01-31T00:00:50.805Z,0.00
2023-01-31T00:01:50.221Z,0.00
2023-01-31T00:02:50.220Z,0.00
2023-01-31T00:03:51.037Z,0.00
2023-01-31T00:04:50.477Z,0.00
2023-01-31T00:05:50.588Z,0.00
2023-01-31T00:06:50.586Z,0.00
2023-01-31T00:07:50.707Z,0.00
2023-01-31T00:08:50.713Z,0.00
2023-01-31T00:09:50.817Z,0.00
2023-01-31T00:10:50.833Z,0.00
2023-01-31T00:11:50.935Z,0.00
2023-01-31T00:12:50.935Z,0.00
2023-01-31T00:13:51.061Z,0.00
2023-01-31T00:14:51.053Z,0.00
2023-01-31T00:15:51.173Z,0.00
2023-01-31T00:16:51.167Z,0.00
2023-01-31T00:17:51.286Z,0.00
2023-01-31T00:18:51.291Z,0.00
2023-01-31T00:19:51.411Z,0.00
2023-01-31T00:20:51.393Z,0.00
2023-01-31T00:21:51.094Z,0.00
2023-01-31T00:22:51.513Z,0.00
2023-01-31T00:23:51.617Z,0.00
2023-01-31T00:24:50.793Z,0.00
2023-01-31T00:25:50.724Z,0.00
2023-01-31T00:26:51.001Z,0.00
2023-01-31T00:27:50.121Z,0.00
2023-01-31T00:28:49.904Z,0.00
2023-01-31T00:29:49.958Z,0.00
2023-01-31T00:30:50.038Z,0.00
2023-01-31T00:31:50.117Z,0.00
2023-01-31T00:32:50.231Z,0.00
2023-01-31T00:33:50.048Z,0.00
2023-01-31T00:34:50.162Z,0.00
2023-01-31T00:35:50.211Z,0.00
2023-01-31T00:36:50.383Z,0.00
2023-01-31T00:37:50.383Z,0.00
2023-01-31T00:38:50.382Z,0.00
2023-01-31T00:39:50.503Z,0.00
2023-01-31T00:40:50.010Z,0.00
2023-01-31T00:41:50.615Z,0.00
2023-01-31T00:42:50.602Z,0.00
2023-01-31T00:43:50.500Z,0.00
2023-01-31T00:44:50.422Z,0.00
2023-01-31T00:45:49.804Z,0.00
2023-01-31T00:46:50.281Z,0.00
2023-01-31T00:47:50.370Z,0.00
2023-01-31T00:48:49.630Z,0.00
2023-01-31T00:49:50.770Z,0.00
2023-01-31T00:50:50.347Z,0.00
2023-01-31T00:51:50.829Z,0.00
2023-01-31T00:52:50.881Z,0.00
2023-01-31T00:53:50.348Z,0.00
2023-01-31T00:54:50.480Z,0.00
2023-01-31T00:55:50.381Z,0.00
2023-01-31T00:56:49.525Z,0.00
2023-01-31T00:57:49.479Z,0.00
2023-01-31T00:58:49.533Z,0.00
2023-01-31T00:59:49.581Z,0.00
2023-01-31T01:00:49.767Z,0.00
2023-01-31T01:01:49.727Z,0.00
2023-01-31T01:02:49.733Z,0.00
2023-01-31T01:03:49.868Z,0.00
2023-01-31T01:04:49.870Z,0.00
2023-01-31T01:05:49.878Z,0.00
2023-01-31T01:06:49.983Z,0.00
2023-01-31T01:07:50.020Z,0.00
2023-01-31T01:08:50.049Z,0.00
2023-01-31T01:09:50.050Z,0.00
2023-01-31T01:10:50.196Z,0.00
2023-01-31T01:11:50.304Z,0.00
2023-01-31T01:12:50.276Z,0.00
2023-01-31T01:13:50.186Z,0.00
2023-01-31T01:14:50.418Z,0.00
2023-01-31T01:15:49.996Z,0.00
2023-01-31T01:16:49.245Z,0.00
2023-01-31T01:17:49.307Z,0.00
2023-01-31T01:18:49.958Z,0.00
2023-01-31T01:19:50.116Z,0.00
2023-01-31T01:20:50.020Z,0.00
2023-01-31T01:21:49.929Z,0.00
2023-01-31T01:22:49.189Z,0.00
2023-01-31T01:23:50.042Z,0.00
2023-01-31T01:24:49.918Z,0.00
2023-01-31T01:25:51.046Z,0.00
2023-01-31T01:26:49.148Z,0.00
2023-01-31T01:27:49.175Z,0.00
2023-01-31T01:28:49.188Z,0.00
2023-01-31T01:29:49.239Z,0.00
2023-01-31T01:30:49.289Z,0.00
2023-01-31T01:31:49.458Z,0.00
2023-01-31T01:32:49.404Z,0.00
2023-01-31T01:33:49.530Z,0.00
2023-01-31T01:34:49.546Z,0.00
2023-01-31T01:35:49.576Z,0.00
2023-01-31T01:36:49.731Z,0.00
2023-01-31T01:37:48.997Z,0.00
2023-01-31T01:38:49.855Z,0.00
2023-01-31T01:39:49.019Z,0.00
2023-01-31T01:40:49.861Z,0.00
2023-01-31T01:41:48.915Z,0.00
2023-01-31T01:42:48.971Z,0.00
2023-01-31T01:43:49.027Z,0.00
2023-01-31T01:44:49.069Z,0.00
2023-01-31T01:45:48.933Z,0.00
2023-01-31T01:46:48.997Z,0.00
2023-01-31T01:47:48.985Z,0.00
2023-01-31T01:48:49.092Z,0.00
2023-01-31T01:49:49.093Z,0.00
2023-01-31T01:50:48.811Z,0.00
2023-01-31T01:51:48.905Z,0.00
2023-01-31T01:52:48.945Z,0.00
2023-01-31T01:53:48.983Z,0.00
2023-01-31T01:54:49.119Z,0.00
2023-01-31T01:55:48.746Z,0.00
2023-01-31T01:56:48.759Z,0.00
2023-01-31T01:57:48.808Z,0.00
2023-01-31T01:58:48.963Z,0.00
2023-01-31T01:59:48.922Z,0.00
2023-01-31T02:00:49.020Z,0.00
2023-01-31T02:01:49.042Z,0.00
2023-01-31T02:02:48.649Z,0.00
2023-01-31T02:03:49.176Z,0.00
2023-01-31T02:04:48.709Z,0.00
2023-01-31T02:05:49.290Z,0.00
2023-01-31T02:06:49.408Z,0.00
2023-01-31T02:07:49.346Z,0.00
2023-01-31T02:08:49.439Z,0.00
2023-01-31T02:09:49.534Z,0.00
2023-01-31T02:10:49.327Z,0.00
2023-01-31T02:11:48.553Z,0.00
2023-01-31T02:12:49.009Z,0.00
2023-01-31T02:13:49.270Z,0.00
2023-01-31T02:14:49.460Z,0.00
2023-01-31T02:15:49.039Z,0.00
2023-01-31T02:16:49.277Z,0.00
2023-01-31T02:17:48.477Z,0.00
2023-01-31T02:18:49.958Z,0.00
2023-01-31T02:19:49.234Z,0.00
2023-01-31T02:20:49.389Z,0.00
2023-01-31T02:21:49.272Z,0.00
2023-01-31T02:22:49.185Z,0.00
2023-01-31T02:23:49.045Z,0.00
2023-01-31T02:24:48.407Z,0.00
2023-01-31T02:25:48.407Z,0.00
2023-01-31T02:26:48.510Z,0.00
2023-01-31T02:27:48.607Z,0.00
2023-01-31T02:28:48.506Z,0.00
2023-01-31T02:29:48.578Z,0.00
2023-01-31T02:30:48.684Z,0.00
2023-01-31T02:31:48.354Z,0.00
2023-01-31T02:32:48.454Z,0.00
2023-01-31T02:33:48.262Z,0.00
2023-01-31T02:34:48.847Z,0.00
2023-01-31T02:35:48.904Z,0.00
2023-01-31T02:36:48.273Z,0.00
2023-01-31T02:37:48.494Z,0.00
2023-01-31T02:38:48.491Z,0.00
2023-01-31T02:39:48.223Z,0.00
2023-01-31T02:40:48.981Z,0.00
2023-01-31T02:41:48.628Z,0.00
2023-01-31T02:42:48.255Z,0.00
2023-01-31T02:43:48.744Z,0.00
2023-01-31T02:44:48.143Z,0.00
2023-01-31T02:45:48.165Z,0.00
2023-01-31T02:46:48.545Z,0.00
2023-01-31T02:47:48.133Z,0.00
2023-01-31T02:48:48.872Z,0.00
2023-01-31T02:49:48.675Z,0.00
2023-01-31T02:50:48.191Z,0.00
2023-01-31T02:51:49.169Z,0.00
2023-01-31T02:52:48.875Z,0.00
2023-01-31T02:53:48.779Z,0.00
2023-01-31T02:54:48.012Z,0.00
2023-01-31T02:55:48.075Z,0.00
2023-01-31T02:56:48.207Z,0.00
2023-01-31T02:57:48.218Z,0.00
2023-01-31T02:58:48.361Z,0.00
2023-01-31T02:59:48.338Z,0.00
2023-01-31T03:00:48.433Z,0.00
2023-01-31T03:01:48.116Z,0.00
2023-01-31T03:02:48.540Z,0.00
2023-01-31T03:03:48.519Z,0.00
2023-01-31T03:04:48.075Z,0.00
2023-01-31T03:05:48.421Z,0.00
2023-01-31T03:06:48.170Z,0.00
2023-01-31T03:07:48.299Z,0.00
2023-01-31T03:08:48.609Z,0.00
2023-01-31T03:09:48.587Z,0.00
2023-01-31T03:10:48.036Z,0.00
2023-01-31T03:11:48.549Z,0.00
2023-01-31T03:12:47.958Z,0.00
2023-01-31T03:13:48.499Z,0.00
2023-01-31T03:14:48.634Z,0.00
2023-01-31T03:15:48.795Z,0.00
2023-01-31T03:16:48.324Z,0.00
2023-01-31T03:17:48.287Z,0.00
2023-01-31T03:18:48.422Z,0.00
2023-01-31T03:19:48.685Z,0.00
2023-01-31T03:20:47.937Z,0.00
2023-01-31T03:21:48.461Z,0.00
2023-01-31T03:22:48.556Z,0.00
2023-01-31T03:23:47.608Z,0.00
2023-01-31T03:24:47.664Z,0.00
2023-01-31T03:25:47.624Z,0.00
2023-01-31T03:26:47.921Z,0.00
2023-01-31T03:27:47.819Z,0.00
2023-01-31T03:28:47.879Z,0.00
2023-01-31T03:29:48.020Z,0.00
2023-01-31T03:30:48.125Z,0.00
2023-01-31T03:31:48.134Z,0.00
2023-01-31T03:32:47.746Z,0.00
2023-01-31T03:33:48.224Z,0.00
2023-01-31T03:34:47.559Z,0.00
2023-01-31T03:35:48.242Z,0.00
2023-01-31T03:36:47.455Z,0.00
2023-01-31T03:37:47.603Z,0.00
2023-01-31T03:38:47.453Z,0.00
2023-01-31T03:39:47.454Z,0.00
2023-01-31T03:40:47.448Z,0.00
2023-01-31T03:41:47.444Z,0.00
2023-01-31T03:42:47.456Z,0.00
2023-01-31T03:43:47.389Z,0.00
2023-01-31T03:44:47.451Z,0.00
2023-01-31T03:45:47.656Z,0.00
2023-01-31T03:46:48.101Z,0.00
2023-01-31T03:47:47.447Z,0.00
2023-01-31T03:48:47.485Z,0.00
2023-01-31T03:49:47.478Z,0.00
2023-01-31T03:50:48.523Z,0.00
2023-01-31T03:51:47.463Z,0.00
2023-01-31T03:52:47.274Z,0.00
2023-01-31T03:53:47.359Z,0.00
2023-01-31T03:54:47.293Z,0.00
2023-01-31T03:55:47.369Z,0.00
2023-01-31T03:56:47.460Z,0.00
2023-01-31T03:57:47.413Z,0.00
2023-01-31T03:58:47.167Z,0.00
2023-01-31T03:59:47.146Z,0.00
2023-01-31T04:00:47.191Z,0.00
2023-01-31T04:01:47.359Z,0.00
2023-01-31T04:02:47.368Z,0.00
2023-01-31T04:03:47.117Z,0.00
2023-01-31T04:04:47.217Z,0.00
2023-01-31T04:05:47.192Z,0.00
2023-01-31T04:06:47.353Z,0.00
2023-01-31T04:07:47.032Z,0.00
2023-01-31T04:08:47.122Z,0.00
2023-01-31T04:09:47.136Z,0.00
2023-01-31T04:10:47.241Z,0.00
2023-01-31T04:11:47.452Z,0.00
2023-01-31T04:12:47.361Z,0.00
2023-01-31T04:13:47.396Z,0.00
2023-01-31T04:14:47.391Z,0.00
2023-01-31T04:15:46.980Z,0.00
2023-01-31T04:16:46.949Z,0.00
2023-01-31T04:17:47.403Z,0.00
2023-01-31T04:18:47.010Z,0.00
2023-01-31T04:19:47.421Z,0.00
2023-01-31T04:20:47.393Z,0.00
2023-01-31T04:21:47.423Z,0.00
2023-01-31T04:22:46.864Z,0.00
2023-01-31T04:23:47.811Z,0.00
2023-01-31T04:24:46.828Z,0.00
2023-01-31T04:25:47.051Z,0.00
2023-01-31T04:26:47.252Z,0.00
2023-01-31T04:27:46.790Z,0.00
2023-01-31T04:28:47.208Z,0.00
2023-01-31T04:29:46.969Z,0.00
2023-01-31T04:30:46.781Z,0.00
2023-01-31T04:31:47.460Z,0.00
2023-01-31T04:32:46.737Z,0.00
2023-01-31T04:33:47.433Z,0.00
2023-01-31T04:34:47.515Z,0.00
2023-01-31T04:35:47.496Z,0.00
2023-01-31T04:36:47.423Z,0.00
2023-01-31T04:37:47.510Z,0.00
2023-01-31T04:38:47.407Z,0.00
2023-01-31T04:39:47.418Z,0.00
2023-01-31T04:40:47.428Z,0.00
2023-01-31T04:41:47.370Z,0.00
2023-01-31T04:42:46.598Z,0.00
2023-01-31T04:43:47.452Z,0.00
2023-01-31T04:44:47.335Z,0.00
2023-01-31T04:45:47.461Z,0.00
2023-01-31T04:46:47.441Z,0.00
2023-01-31T04:47:47.470Z,0.00
2023-01-31T04:48:47.477Z,0.00
2023-01-31T04:49:47.056Z,0.00
2023-01-31T04:50:47.282Z,0.00
2023-01-31T04:51:46.495Z,0.00
2023-01-31T04:52:46.465Z,0.00
2023-01-31T04:53:46.449Z,0.00
2023-01-31T04:54:46.427Z,0.00
2023-01-31T04:55:46.445Z,0.00
2023-01-31T04:56:46.507Z,0.00
2023-01-31T04:57:46.416Z,0.00
2023-01-31T04:58:46.518Z,0.00
2023-01-31T04:59:46.420Z,0.00
2023-01-31T05:00:46.417Z,0.00
2023-01-31T05:01:46.397Z,0.00
2023-01-31T05:02:46.485Z,0.00
2023-01-31T05:03:46.325Z,0.00
2023-01-31T05:04:46.334Z,0.00
2023-01-31T05:05:46.342Z,0.00
2023-01-31T05:06:46.408Z,0.00
2023-01-31T05:07:46.473Z,0.00
2023-01-31T05:08:46.262Z,0.00
2023-01-31T05:09:46.409Z,0.00
2023-01-31T05:10:47.138Z,0.00
2023-01-31T05:11:46.412Z,0.00
2023-01-31T05:12:46.421Z,0.00
2023-01-31T05:13:46.408Z,0.00
2023-01-31T05:14:46.409Z,0.00
2023-01-31T05:15:46.404Z,0.00
2023-01-31T05:16:46.410Z,0.00
2023-01-31T05:17:46.414Z,0.00
2023-01-31T05:18:46.130Z,0.00
2023-01-31T05:19:46.426Z,0.00
2023-01-31T05:20:46.416Z,0.00
2023-01-31T05:21:46.155Z,0.00
2023-01-31T05:22:46.273Z,0.00
2023-01-31T05:23:46.172Z,0.00
2023-01-31T05:24:46.049Z,0.00
2023-01-31T05:25:46.350Z,0.00
2023-01-31T05:26:46.442Z,0.00
2023-01-31T05:27:46.011Z,0.00
2023-01-31T05:28:46.412Z,0.00
2023-01-31T05:29:46.138Z,0.00
2023-01-31T05:30:46.499Z,0.00
2023-01-31T05:31:46.459Z,0.00
2023-01-31T05:32:46.421Z,0.00
2023-01-31T05:33:46.719Z,0.00
2023-01-31T05:34:46.400Z,0.00
2023-01-31T05:35:46.038Z,0.00
2023-01-31T05:36:46.399Z,0.00
2023-01-31T05:37:46.400Z,0.00
2023-01-31T05:38:45.869Z,0.00
2023-01-31T05:39:46.428Z,0.00
2023-01-31T05:40:46.479Z,0.00
2023-01-31T05:41:46.403Z,0.00
2023-01-31T05:42:46.408Z,0.00
2023-01-31T05:43:46.500Z,0.00
2023-01-31T05:44:45.789Z,0.00
2023-01-31T05:45:46.422Z,0.00
2023-01-31T05:46:45.971Z,0.00
2023-01-31T05:47:46.418Z,0.00
2023-01-31T05:48:45.749Z,0.00
2023-01-31T05:49:45.898Z,0.00
2023-01-31T05:50:45.739Z,0.00
2023-01-31T05:51:46.541Z,0.00
2023-01-31T05:52:46.479Z,0.00
2023-01-31T05:53:45.683Z,0.00
2023-01-31T05:54:45.761Z,0.00
2023-01-31T05:55:45.694Z,0.00
2023-01-31T05:56:45.640Z,0.00
2023-01-31T05:57:45.618Z,0.00
2023-01-31T05:58:45.648Z,0.00
2023-01-31T05:59:45.698Z,0.00
2023-01-31T06:00:45.792Z,0.00
2023-01-31T06:01:45.652Z,0.00
2023-01-31T06:02:45.579Z,0.00
2023-01-31T06:03:45.654Z,0.00
2023-01-31T06:04:45.741Z,0.00
2023-01-31T06:05:45.834Z,0.00
2023-01-31T06:06:45.833Z,0.00
2023-01-31T06:07:45.875Z,0.00
2023-01-31T06:08:45.480Z,0.00
2023-01-31T06:09:45.848Z,0.00
2023-01-31T06:10:46.055Z,0.00
2023-01-31T06:11:45.963Z,0.00
2023-01-31T06:12:46.299Z,0.00
2023-01-31T06:13:46.218Z,0.00
2023-01-31T06:14:45.709Z,0.00
2023-01-31T06:15:46.273Z,0.00
2023-01-31T06:16:45.418Z,0.00
2023-01-31T06:17:45.966Z,0.00
2023-01-31T06:18:45.352Z,0.00
2023-01-31T06:19:45.391Z,0.00
2023-01-31T06:20:45.508Z,0.00
2023-01-31T06:21:45.496Z,0.00
2023-01-31T06:22:45.303Z,0.00
2023-01-31T06:23:45.424Z,0.00
2023-01-31T06:24:45.535Z,0.00
2023-01-31T06:25:45.746Z,0.00
2023-01-31T06:26:45.923Z,0.00
2023-01-31T06:27:45.865Z,0.00
2023-01-31T06:28:46.454Z,0.00
2023-01-31T06:29:45.951Z,1.00
2023-01-31T06:30:46.141Z,0.00
2023-01-31T06:31:46.071Z,0.00
2023-01-31T06:32:45.926Z,0.00
2023-01-31T06:33:48.039Z,0.00
2023-01-31T06:34:45.994Z,1.00
2023-01-31T06:35:46.324Z,1.00
2023-01-31T06:36:46.051Z,0.00
2023-01-31T06:37:45.388Z,2.00
2023-01-31T06:38:45.775Z,1.00
2023-01-31T06:39:45.771Z,1.00
2023-01-31T06:40:45.942Z,0.00
2023-01-31T06:41:45.829Z,2.00
2023-01-31T06:42:45.737Z,2.00
2023-01-31T06:43:45.890Z,2.00
2023-01-31T06:44:45.804Z,7.00
2023-01-31T06:45:45.757Z,4.00
2023-01-31T06:46:44.960Z,4.00
2023-01-31T06:47:44.934Z,1.00
2023-01-31T06:48:44.984Z,2.00
2023-01-31T06:49:45.038Z,6.00
2023-01-31T06:50:45.211Z,10.00
2023-01-31T06:51:45.149Z,9.00
2023-01-31T06:52:45.020Z,10.00
2023-01-31T06:53:45.273Z,11.00
2023-01-31T06:54:45.327Z,10.00
2023-01-31T06:55:45.430Z,10.00
2023-01-31T06:56:45.330Z,17.00
2023-01-31T06:57:45.381Z,24.00
2023-01-31T06:58:44.829Z,22.00
2023-01-31T06:59:45.598Z,21.00
2023-01-31T07:00:45.540Z,25.00
2023-01-31T07:01:45.833Z,23.00
2023-01-31T07:02:45.607Z,21.00
2023-01-31T07:03:45.520Z,21.00
2023-01-31T07:04:45.704Z,36.00
2023-01-31T07:05:45.580Z,29.00
2023-01-31T07:06:46.017Z,47.00
2023-01-31T07:07:45.391Z,49.00
2023-01-31T07:08:45.552Z,45.00
2023-01-31T07:09:45.468Z,37.00
2023-01-31T07:10:45.349Z,51.00
2023-01-31T07:11:45.508Z,47.00
2023-01-31T07:12:45.419Z,44.00
2023-01-31T07:13:45.317Z,53.00
2023-01-31T07:14:44.570Z,72.00
2023-01-31T07:15:45.408Z,78.00
2023-01-31T07:16:44.634Z,70.00
2023-01-31T07:17:44.544Z,73.00
2023-01-31T07:18:44.647Z,84.00
2023-01-31T07:19:44.701Z,103.00
2023-01-31T07:20:45.581Z,109.00
2023-01-31T07:21:44.877Z,109.00
2023-01-31T07:22:44.857Z,96.00
2023-01-31T07:23:44.467Z,120.00
2023-01-31T07:24:44.976Z,133.00
2023-01-31T07:25:45.028Z,142.00
2023-01-31T07:26:44.515Z,145.00
2023-01-31T07:27:44.856Z,125.00
2023-01-31T07:28:44.487Z,127.00
2023-01-31T07:29:44.399Z,153.00
2023-01-31T07:30:45.268Z,170.00
2023-01-31T07:31:45.170Z,138.00
2023-01-31T07:32:45.289Z,123.00
2023-01-31T07:33:45.187Z,161.00
2023-01-31T07:34:44.505Z,168.00
2023-01-31T07:35:44.294Z,167.00
2023-01-31T07:36:44.764Z,153.00
2023-01-31T07:37:44.277Z,162.00
2023-01-31T07:38:44.427Z,172.00
2023-01-31T07:39:44.476Z,242.00
2023-01-31T07:40:44.556Z,181.00
2023-01-31T07:41:44.294Z,224.00
2023-01-31T07:42:44.563Z,256.00
2023-01-31T07:43:44.372Z,324.00
2023-01-31T07:44:44.255Z,351.00
2023-01-31T07:45:45.986Z,259.00
2023-01-31T07:46:44.240Z,288.00
2023-01-31T07:47:44.296Z,324.00
2023-01-31T07:48:44.423Z,318.00
2023-01-31T07:49:44.422Z,199.00
2023-01-31T07:50:44.352Z,248.00
2023-01-31T07:51:44.255Z,261.00
2023-01-31T07:52:44.283Z,266.00
2023-01-31T07:53:44.369Z,388.00
2023-01-31T07:54:44.073Z,304.00
2023-01-31T07:55:44.251Z,243.00
2023-01-31T07:56:44.293Z,300.00
2023-01-31T07:57:44.302Z,268.00
2023-01-31T07:58:44.261Z,267.00
2023-01-31T07:59:44.261Z,208.00
2023-01-31T08:00:44.382Z,299.00
2023-01-31T08:01:44.268Z,201.00
2023-01-31T08:02:44.334Z,380.00
2023-01-31T08:03:44.264Z,320.00
2023-01-31T08:04:44.002Z,311.00
2023-01-31T08:05:44.349Z,362.00
2023-01-31T08:06:44.279Z,519.00
2023-01-31T08:07:44.369Z,424.00
2023-01-31T08:08:44.360Z,307.00
2023-01-31T08:09:44.169Z,457.00
2023-01-31T08:10:44.260Z,472.00
2023-01-31T08:11:44.355Z,323.00
2023-01-31T08:12:44.813Z,455.00
2023-01-31T08:13:44.138Z,357.00
2023-01-31T08:14:43.808Z,597.00
2023-01-31T08:15:43.843Z,653.00
2023-01-31T08:16:43.910Z,592.00
2023-01-31T08:17:43.875Z,542.00
2023-01-31T08:18:43.969Z,468.00
2023-01-31T08:19:43.773Z,484.00
2023-01-31T08:20:43.807Z,455.00
2023-01-31T08:21:43.827Z,453.00
2023-01-31T08:22:43.869Z,436.00
2023-01-31T08:23:44.677Z,625.00
2023-01-31T08:24:44.424Z,581.00
2023-01-31T08:25:43.693Z,613.00
2023-01-31T08:26:44.448Z,726.00
2023-01-31T08:27:44.202Z,653.00
2023-01-31T08:28:43.907Z,769.00
2023-01-31T08:29:44.053Z,796.00
2023-01-31T08:30:46.509Z,647.00
2023-01-31T08:31:44.847Z,650.00
2023-01-31T08:32:44.156Z,729.00
2023-01-31T08:33:44.331Z,955.00
2023-01-31T08:34:43.607Z,1054.00
2023-01-31T08:35:44.373Z,1010.00
2023-01-31T08:36:43.831Z,995.00
2023-01-31T08:37:44.249Z,1082.00
2023-01-31T08:38:43.657Z,1096.00
2023-01-31T08:39:44.342Z,1137.00
2023-01-31T08:40:43.516Z,1195.00
2023-01-31T08:41:44.296Z,972.00
2023-01-31T08:42:44.264Z,972.00
2023-01-31T08:43:54.931Z,1057.00
2023-01-31T08:44:44.857Z,1165.00
2023-01-31T08:45:44.164Z,1128.00
2023-01-31T08:46:43.435Z,1094.00
2023-01-31T08:47:43.455Z,935.00
2023-01-31T08:48:43.502Z,991.00
2023-01-31T08:49:43.552Z,931.00
2023-01-31T08:50:43.600Z,818.00
2023-01-31T08:51:44.815Z,744.00
2023-01-31T08:52:43.322Z,798.00
2023-01-31T08:53:43.304Z,791.00
2023-01-31T08:54:43.337Z,729.00
2023-01-31T08:55:44.375Z,648.00
2023-01-31T08:56:43.299Z,701.00
2023-01-31T08:57:57.621Z,654.00
2023-01-31T08:58:44.315Z,714.00
2023-01-31T08:59:43.326Z,959.00
2023-01-31T09:00:43.453Z,909.00
2023-01-31T09:01:44.334Z,1135.00
2023-01-31T09:02:43.415Z,1034.00
2023-01-31T09:03:45.137Z,1286.00
2023-01-31T09:04:43.465Z,1252.00
2023-01-31T09:05:43.385Z,1081.00
2023-01-31T09:06:43.407Z,1272.00
2023-01-31T09:07:43.171Z,1470.00
2023-01-31T09:08:43.376Z,1561.00
2023-01-31T09:09:43.110Z,1527.00
2023-01-31T09:10:43.387Z,1387.00
2023-01-31T09:11:43.393Z,1206.00
2023-01-31T09:12:43.103Z,1098.00
2023-01-31T09:13:43.871Z,1188.00
2023-01-31T09:14:43.466Z,1287.00
2023-01-31T09:15:43.141Z,1160.00
2023-01-31T09:16:43.729Z,1118.00
2023-01-31T09:17:43.161Z,1410.00
2023-01-31T09:18:43.134Z,1558.00
2023-01-31T09:19:43.540Z,1507.00
2023-01-31T09:20:43.014Z,1505.00
2023-01-31T09:21:43.306Z,1380.00
2023-01-31T09:22:42.969Z,1699.00
2023-01-31T09:23:43.089Z,1297.00
2023-01-31T09:24:43.510Z,1571.00
2023-01-31T09:25:47.650Z,1782.00
2023-01-31T09:26:43.119Z,1881.00
2023-01-31T09:27:43.629Z,1709.00
2023-01-31T09:28:43.306Z,1426.00
2023-01-31T09:29:43.746Z,1336.00
2023-01-31T09:30:43.771Z,1678.00
2023-01-31T09:31:43.186Z,1826.00
2023-01-31T09:32:42.863Z,1792.00
2023-01-31T09:33:42.914Z,1571.00
2023-01-31T09:34:42.943Z,1836.00
2023-01-31T09:35:43.441Z,1393.00
2023-01-31T09:36:43.963Z,1285.00
2023-01-31T09:37:43.529Z,1374.00
2023-01-31T09:38:43.444Z,1436.00
2023-01-31T09:39:44.102Z,1360.00
2023-01-31T09:40:44.116Z,1549.00
2023-01-31T09:41:43.409Z,1583.00
2023-01-31T09:42:43.027Z,1420.00
2023-01-31T09:43:43.458Z,1705.00
2023-01-31T09:44:43.373Z,2003.00
2023-01-31T09:45:42.951Z,1906.00
2023-01-31T09:46:43.014Z,1678.00
2023-01-31T09:47:43.098Z,1441.00
2023-01-31T09:48:43.500Z,1783.00
2023-01-31T09:49:42.586Z,1830.00
2023-01-31T09:50:42.704Z,1393.00
2023-01-31T09:51:43.558Z,1450.00
2023-01-31T09:52:42.789Z,1590.00
2023-01-31T09:53:42.803Z,1453.00
2023-01-31T09:54:42.939Z,1646.00
2023-01-31T09:55:42.946Z,1577.00
2023-01-31T09:56:42.980Z,1643.00
2023-01-31T09:57:43.009Z,1781.00
2023-01-31T09:58:43.336Z,1765.00
2023-01-31T09:59:43.118Z,1341.00
2023-01-31T10:00:43.013Z,1990.00
2023-01-31T10:01:43.227Z,1512.00
2023-01-31T10:02:43.271Z,1989.00
2023-01-31T10:03:43.363Z,2040.00
2023-01-31T10:04:43.038Z,2409.00
2023-01-31T10:05:42.464Z,2415.00
2023-01-31T10:06:42.895Z,2531.00
2023-01-31T10:07:42.968Z,2757.00
2023-01-31T10:08:42.964Z,2326.00
2023-01-31T10:09:42.366Z,2375.00
2023-01-31T10:10:43.037Z,2497.00
2023-01-31T10:11:42.485Z,1880.00
2023-01-31T10:12:42.979Z,1706.00
2023-01-31T10:13:42.241Z,1787.00
2023-01-31T10:14:42.474Z,1708.00
2023-01-31T10:15:42.816Z,1600.00
2023-01-31T10:16:42.201Z,1325.00
2023-01-31T10:17:43.075Z,1550.00
2023-01-31T10:18:42.924Z,1245.00
2023-01-31T10:19:43.078Z,1724.00
2023-01-31T10:20:42.997Z,1364.00
2023-01-31T10:21:42.143Z,1438.00
2023-01-31T10:22:43.216Z,1918.00
2023-01-31T10:23:42.332Z,1429.00
2023-01-31T10:24:42.143Z,1327.00
2023-01-31T10:25:43.092Z,1635.00
2023-01-31T10:26:42.422Z,982.00
2023-01-31T10:27:42.300Z,1189.00
2023-01-31T10:28:42.342Z,1556.00
2023-01-31T10:29:42.411Z,1230.00
2023-01-31T10:30:42.551Z,1609.00
2023-01-31T10:31:43.972Z,1354.00
2023-01-31T10:32:42.576Z,1358.00
2023-01-31T10:33:42.011Z,2169.00
2023-01-31T10:34:42.020Z,2128.00
2023-01-31T10:35:42.089Z,1688.00
2023-01-31T10:36:42.744Z,1054.00
2023-01-31T10:37:44.344Z,918.00
2023-01-31T10:38:42.004Z,1183.00
2023-01-31T10:39:42.054Z,1156.00
2023-01-31T10:40:42.109Z,1380.00
2023-01-31T10:41:41.912Z,1637.00
2023-01-31T10:42:41.899Z,1422.00
2023-01-31T10:43:41.903Z,958.00
2023-01-31T10:44:41.846Z,855.00
2023-01-31T10:45:42.128Z,1340.00
2023-01-31T10:46:42.141Z,1196.00
2023-01-31T10:47:42.250Z,1536.00
2023-01-31T10:48:42.442Z,1737.00
2023-01-31T10:49:42.419Z,1461.00
2023-01-31T10:50:42.404Z,1595.00
2023-01-31T10:51:42.449Z,1484.00
2023-01-31T10:52:41.910Z,1644.00
2023-01-31T10:53:41.750Z,1805.00
2023-01-31T10:54:41.926Z,1901.00
2023-01-31T10:55:41.829Z,2268.00
2023-01-31T10:56:41.891Z,1920.00
2023-01-31T10:57:41.913Z,1601.00
2023-01-31T10:58:41.992Z,1749.00
2023-01-31T10:59:41.838Z,1068.00
2023-01-31T11:00:42.188Z,1676.00
2023-01-31T11:01:42.229Z,1491.00
2023-01-31T11:02:42.536Z,2128.00
2023-01-31T11:03:42.298Z,1071.00
2023-01-31T11:04:42.320Z,1771.00
2023-01-31T11:05:41.628Z,2162.00
2023-01-31T11:06:41.767Z,1518.00
2023-01-31T11:07:42.315Z,2332.00
2023-01-31T11:08:42.608Z,2022.00
2023-01-31T11:09:42.384Z,1840.00
2023-01-31T11:10:42.479Z,1647.00
2023-01-31T11:11:41.525Z,892.00
2023-01-31T11:12:42.568Z,1514.00
2023-01-31T11:13:42.594Z,1131.00
2023-01-31T11:14:42.024Z,1394.00
2023-01-31T11:15:42.684Z,681.00
2023-01-31T11:16:42.290Z,2299.00
2023-01-31T11:17:41.457Z,1622.00
2023-01-31T11:18:42.278Z,1305.00
2023-01-31T11:19:42.188Z,1167.00
2023-01-31T11:20:41.478Z,1018.00
2023-01-31T11:21:41.456Z,1117.00
2023-01-31T11:22:42.156Z,989.00
2023-01-31T11:23:41.395Z,936.00
2023-01-31T11:24:41.453Z,764.00
2023-01-31T11:25:41.497Z,968.00
2023-01-31T11:26:41.704Z,574.00
2023-01-31T11:27:41.642Z,456.00
2023-01-31T11:28:41.649Z,985.00
2023-01-31T11:29:41.712Z,704.00
2023-01-31T11:30:41.758Z,1507.00
2023-01-31T11:31:41.846Z,2123.00
2023-01-31T11:32:41.855Z,1094.00
2023-01-31T11:33:41.925Z,954.00
2023-01-31T11:34:42.081Z,1939.00
2023-01-31T11:35:41.688Z,1505.00
2023-01-31T11:36:41.175Z,2076.00
2023-01-31T11:37:42.059Z,1831.00
2023-01-31T11:38:41.241Z,2342.00
2023-01-31T11:39:41.717Z,2058.00
2023-01-31T11:40:41.974Z,2291.00
2023-01-31T11:41:41.763Z,2074.00
2023-01-31T11:42:42.411Z,3361.00
2023-01-31T11:43:42.582Z,1788.00
2023-01-31T11:44:41.832Z,2258.00
2023-01-31T11:45:42.123Z,2088.00
2023-01-31T11:46:41.892Z,2171.00
2023-01-31T11:47:41.292Z,2114.00
2023-01-31T11:48:41.965Z,1731.00
2023-01-31T11:49:41.933Z,1480.00
2023-01-31T11:50:41.840Z,2833.00
2023-01-31T11:51:41.985Z,2246.00
2023-01-31T11:52:40.993Z,2734.00
2023-01-31T11:53:41.063Z,1846.00
2023-01-31T11:54:41.069Z,2013.00
2023-01-31T11:55:41.118Z,2003.00
2023-01-31T11:56:41.285Z,1549.00
2023-01-31T11:57:40.944Z,1695.00
2023-01-31T11:58:41.285Z,2198.00
2023-01-31T11:59:41.322Z,1592.00
2023-01-31T12:00:42.698Z,2089.00
2023-01-31T12:01:41.723Z,4035.00
2023-01-31T12:02:41.463Z,3846.00
2023-01-31T12:03:55.248Z,2738.00
2023-01-31T12:04:41.830Z,2323.00
2023-01-31T12:05:41.436Z,1886.00
2023-01-31T12:06:41.722Z,1754.00
2023-01-31T12:07:41.259Z,1666.00
2023-01-31T12:08:41.604Z,1023.00
2023-01-31T12:09:41.483Z,1004.00
2023-01-31T12:10:41.666Z,1094.00
2023-01-31T12:11:42.080Z,1154.00
2023-01-31T12:12:40.804Z,1125.00
2023-01-31T12:13:41.139Z,1123.00
2023-01-31T12:14:41.524Z,850.00
2023-01-31T12:15:41.443Z,1078.00
2023-01-31T12:16:41.663Z,1065.00
2023-01-31T12:17:41.478Z,1118.00
2023-01-31T12:18:40.699Z,697.00
2023-01-31T12:19:41.947Z,1167.00
2023-01-31T12:20:41.538Z,1102.00
2023-01-31T12:21:40.666Z,813.00
2023-01-31T12:22:40.628Z,1153.00
2023-01-31T12:23:40.730Z,836.00
2023-01-31T12:24:40.729Z,556.00
2023-01-31T12:25:40.584Z,525.00
2023-01-31T12:26:40.859Z,863.00
2023-01-31T12:27:40.963Z,1103.00
2023-01-31T12:28:40.976Z,1199.00
2023-01-31T12:29:41.259Z,922.00
2023-01-31T12:30:41.095Z,1621.00
2023-01-31T12:31:41.133Z,1309.00
2023-01-31T12:32:40.887Z,1010.00
2023-01-31T12:33:41.317Z,1182.00
2023-01-31T12:34:57.928Z,766.00
2023-01-31T12:35:42.034Z,889.00
2023-01-31T12:36:41.436Z,1204.00
2023-01-31T12:37:41.538Z,1331.00
2023-01-31T12:38:41.582Z,1599.00
2023-01-31T12:39:40.427Z,1093.00
2023-01-31T12:40:41.682Z,1132.00
2023-01-31T12:41:41.693Z,911.00
2023-01-31T12:42:41.789Z,1218.00
2023-01-31T12:43:41.790Z,915.00
2023-01-31T12:44:40.869Z,650.00
2023-01-31T12:45:41.905Z,842.00
2023-01-31T12:46:41.093Z,885.00
2023-01-31T12:47:40.258Z,941.00
2023-01-31T12:48:40.601Z,1024.00